createdAt,value
2022-12-18T00:01:40.399Z,39.03
2022-12-18T00:11:42.443Z,47.40
2022-12-18T00:21:44.871Z,18.27
2022-12-18T00:31:46.323Z,14.23
2022-12-18T00:42:06.025Z,39.03
2022-12-18T00:52:07.399Z,45.87
2022-12-18T01:02:08.873Z,41.77
2022-12-18T01:12:10.376Z,47.00
2022-12-18T01:22:11.727Z,32.83
2022-12-18T01:32:13.064Z,38.40
2022-12-18T01:42:17.120Z,24.10
2022-12-18T01:52:21.019Z,31.02
2022-12-18T02:02:23.139Z,37.23
2022-12-18T02:12:29.168Z,30.03
2022-12-18T02:22:48.266Z,34.15
2022-12-18T02:32:55.145Z,25.57
2022-12-18T02:43:02.806Z,40.30
2022-12-18T02:53:28.585Z,37.20
2022-12-18T03:03:48.932Z,31.67
2022-12-18T03:13:58.699Z,23.23
2022-12-18T03:24:01.668Z,24.57
2022-12-18T03:34:07.931Z,33.83
2022-12-18T03:44:16.858Z,30.33
2022-12-18T03:54:19.734Z,34.67
2022-12-18T04:04:23.185Z,23.40
2022-12-18T04:14:24.549Z,29.30
2022-12-18T04:24:25.895Z,30.87
2022-12-18T04:34:27.264Z,24.45
2022-12-18T04:44:28.593Z,25.95
2022-12-18T04:54:29.934Z,21.73
2022-12-18T05:04:31.279Z,30.23
2022-12-18T05:14:32.747Z,24.77
2022-12-18T05:24:34.113Z,31.70
2022-12-18T05:34:35.486Z,27.93
2022-12-18T05:44:36.834Z,26.17
2022-12-18T05:54:38.195Z,28.83
2022-12-18T06:04:39.562Z,26.47
2022-12-18T06:14:40.994Z,31.33
2022-12-18T06:24:42.363Z,15.27
2022-12-18T06:34:43.879Z,25.60
2022-12-18T06:44:45.243Z,28.47
2022-12-18T06:54:46.591Z,15.15
2022-12-18T07:04:50.898Z,25.27
2022-12-18T07:14:52.258Z,22.97
2022-12-18T07:24:53.939Z,23.02
2022-12-18T07:34:55.436Z,16.77
2022-12-18T07:44:57.294Z,29.70
2022-12-18T07:54:59.745Z,33.17
2022-12-18T08:05:01.110Z,18.55
2022-12-18T08:15:02.531Z,13.83
2022-12-18T08:25:04.730Z,25.63
2022-12-18T08:35:07.154Z,16.95
2022-12-18T08:45:09.179Z,17.77
2022-12-18T08:55:11.035Z,16.70
2022-12-18T09:05:12.411Z,16.83
2022-12-18T09:15:13.774Z,20.33
2022-12-18T09:25:15.143Z,19.83
2022-12-18T09:35:16.617Z,22.58
2022-12-18T09:45:18.931Z,21.63
2022-12-18T09:55:36.477Z,18.10
2022-12-18T10:05:43.409Z,10.67
2022-12-18T10:15:59.918Z,7.97
2022-12-18T10:26:07.885Z,22.73
2022-12-18T10:36:09.586Z,24.83
2022-12-18T10:46:10.911Z,16.58
2022-12-18T10:56:13.143Z,24.90
2022-12-18T11:06:22.547Z,21.10
2022-12-18T11:16:24.751Z,17.50
2022-12-18T11:26:35.650Z,31.27
2022-12-18T11:36:44.534Z,29.80
2022-12-18T11:46:56.225Z,28.03
2022-12-18T11:57:31.879Z,30.73
2022-12-18T12:08:16.023Z,17.37
2022-12-18T12:18:32.535Z,12.80
2022-12-18T12:28:49.122Z,12.63
2022-12-18T12:38:56.026Z,14.07
2022-12-18T12:49:00.601Z,9.60
2022-12-18T12:59:21.980Z,12.70
2022-12-18T13:09:23.603Z,13.05
2022-12-18T13:19:27.308Z,12.60
2022-12-18T13:29:55.060Z,12.97
2022-12-18T13:39:56.712Z,10.20
2022-12-18T13:49:58.575Z,14.20
2022-12-18T14:00:29.880Z,15.27
2022-12-18T14:10:48.699Z,19.73
2022-12-18T14:20:54.246Z,13.03
2022-12-18T14:30:56.551Z,18.47
2022-12-18T14:41:13.160Z,16.40
2022-12-18T14:51:21.081Z,15.63
2022-12-18T15:01:38.637Z,18.27
2022-12-18T15:11:42.831Z,15.83
2022-12-18T15:21:44.480Z,16.25
2022-12-18T15:32:19.579Z,20.67
2022-12-18T15:42:39.631Z,10.40
2022-12-18T15:52:44.866Z,19.00
2022-12-18T16:02:46.404Z,19.03
2022-12-18T16:12:48.355Z,22.40
2022-12-18T16:22:50.411Z,21.35
2022-12-18T16:32:51.849Z,19.33
2022-12-18T16:42:53.206Z,21.97
2022-12-18T16:52:54.571Z,25.00
2022-12-18T17:02:56.029Z,23.60
2022-12-18T17:12:57.559Z,28.43
2022-12-18T17:22:58.908Z,24.13
2022-12-18T17:33:01.463Z,24.23
2022-12-18T17:43:02.934Z,28.77
2022-12-18T17:53:04.302Z,22.20
2022-12-18T18:03:05.741Z,26.45
2022-12-18T18:13:42.058Z,27.02
2022-12-18T18:23:47.773Z,25.63
2022-12-18T18:33:50.817Z,30.90
2022-12-18T18:43:56.939Z,29.00
2022-12-18T18:53:58.330Z,29.40
2022-12-18T19:04:01.473Z,29.87
2022-12-18T19:14:05.926Z,38.72
2022-12-18T19:24:07.712Z,23.70
2022-12-18T19:34:11.938Z,25.17
2022-12-18T19:44:17.525Z,30.83
2022-12-18T19:54:18.928Z,34.05
2022-12-18T20:04:20.332Z,27.93
2022-12-18T20:14:22.835Z,38.33
2022-12-18T20:24:25.144Z,51.88
2022-12-18T20:34:26.739Z,33.00
2022-12-18T20:44:29.069Z,36.13
2022-12-18T20:54:30.436Z,34.55
2022-12-18T21:04:31.795Z,22.93
2022-12-18T21:14:33.305Z,34.93
2022-12-18T21:24:34.678Z,36.22
2022-12-18T21:34:36.977Z,37.63
2022-12-18T21:44:41.653Z,44.07
2022-12-18T21:54:43.770Z,33.80
2022-12-18T22:04:46.804Z,31.17
2022-12-18T22:14:48.212Z,35.27
2022-12-18T22:24:49.531Z,34.57
2022-12-18T22:34:50.891Z,34.38
2022-12-18T22:44:52.232Z,27.20
2022-12-18T22:54:54.478Z,36.07
2022-12-18T23:04:56.002Z,40.33
2022-12-18T23:14:57.564Z,33.10
2022-12-18T23:24:58.967Z,30.60
2022-12-18T23:35:00.326Z,34.00
2022-12-18T23:45:03.908Z,31.85
2022-12-18T23:55:10.705Z,37.43
